sensor_id;sensor_type;location;lat;lon;timestamp;pressure;altitude;pressure_sealevel;temperature;humidity
60417;BME280;46263;44.726;10.396;2022-12-07T00:01:31;100378.50;;;9.93;68.70
60417;BME280;46263;44.726;10.396;2022-12-07T00:03:58;100374.19;;;9.98;68.73
60417;BME280;46263;44.726;10.396;2022-12-07T00:06:35;100380.78;;;10.00;68.63
60417;BME280;46263;44.726;10.396;2022-12-07T00:09:03;100371.13;;;10.01;68.79
60417;BME280;46263;44.726;10.396;2022-12-07T00:11:28;100378.97;;;10.03;68.44
60417;BME280;46263;44.726;10.396;2022-12-07T00:13:56;100377.69;;;10.04;68.52
60417;BME280;46263;44.726;10.396;2022-12-07T00:16:24;100372.13;;;10.04;68.92
60417;BME280;46263;44.726;10.396;2022-12-07T00:18:50;100370.38;;;10.01;69.30
60417;BME280;46263;44.726;10.396;2022-12-07T00:21:24;100357.69;;;10.00;68.81
60417;BME280;46263;44.726;10.396;2022-12-07T00:23:51;100357.44;;;9.98;68.53
60417;BME280;46263;44.726;10.396;2022-12-07T00:28:51;100350.59;;;9.99;67.78
60417;BME280;46263;44.726;10.396;2022-12-07T00:31:19;100344.19;;;10.04;68.00
60417;BME280;46263;44.726;10.396;2022-12-07T00:33:46;100337.09;;;10.03;68.41
60417;BME280;46263;44.726;10.396;2022-12-07T00:36:14;100330.00;;;10.02;68.36
60417;BME280;46263;44.726;10.396;2022-12-07T00:38:40;100326.41;;;10.07;68.21
60417;BME280;46263;44.726;10.396;2022-12-07T00:41:10;100322.13;;;10.06;67.55
60417;BME280;46263;44.726;10.396;2022-12-07T00:43:36;100334.31;;;10.03;67.59
60417;BME280;46263;44.726;10.396;2022-12-07T00:46:02;100334.84;;;9.96;67.73
60417;BME280;46263;44.726;10.396;2022-12-07T00:48:27;100328.53;;;9.95;67.33
60417;BME280;46263;44.726;10.396;2022-12-07T00:50:53;100325.47;;;9.99;67.82
60417;BME280;46263;44.726;10.396;2022-12-07T00:53:19;100332.78;;;10.02;67.85
60417;BME280;46263;44.726;10.396;2022-12-07T00:55:45;100323.94;;;9.98;67.52
60417;BME280;46263;44.726;10.396;2022-12-07T00:58:11;100324.41;;;10.02;67.69
60417;BME280;46263;44.726;10.396;2022-12-07T01:00:38;100328.97;;;10.05;67.64
60417;BME280;46263;44.726;10.396;2022-12-07T01:03:04;100323.69;;;9.96;67.64
60417;BME280;46263;44.726;10.396;2022-12-07T01:05:30;100336.19;;;9.89;67.60
60417;BME280;46263;44.726;10.396;2022-12-07T01:07:55;100322.34;;;9.73;68.28
60417;BME280;46263;44.726;10.396;2022-12-07T01:10:21;100322.91;;;9.66;68.57
60417;BME280;46263;44.726;10.396;2022-12-07T01:12:46;100317.50;;;9.73;68.59
60417;BME280;46263;44.726;10.396;2022-12-07T01:15:12;100318.75;;;9.78;68.32
60417;BME280;46263;44.726;10.396;2022-12-07T01:17:37;100324.59;;;9.74;68.04
60417;BME280;46263;44.726;10.396;2022-12-07T01:20:03;100325.63;;;9.77;68.26
60417;BME280;46263;44.726;10.396;2022-12-07T01:22:29;100328.34;;;9.82;67.78
60417;BME280;46263;44.726;10.396;2022-12-07T01:24:55;100326.03;;;9.86;68.11
60417;BME280;46263;44.726;10.396;2022-12-07T01:27:21;100329.53;;;9.92;68.11
60417;BME280;46263;44.726;10.396;2022-12-07T01:29:46;100338.44;;;9.91;67.54
60417;BME280;46263;44.726;10.396;2022-12-07T01:32:12;100334.66;;;9.88;68.05
60417;BME280;46263;44.726;10.396;2022-12-07T01:34:37;100329.78;;;9.94;67.69
60417;BME280;46263;44.726;10.396;2022-12-07T01:37:03;100335.66;;;9.91;67.52
60417;BME280;46263;44.726;10.396;2022-12-07T01:39:29;100331.06;;;9.93;67.70
60417;BME280;46263;44.726;10.396;2022-12-07T01:41:54;100319.16;;;9.93;67.71
60417;BME280;46263;44.726;10.396;2022-12-07T01:46:54;100337.91;;;9.98;67.37
60417;BME280;46263;44.726;10.396;2022-12-07T01:51:49;100328.84;;;9.86;67.84
60417;BME280;46263;44.726;10.396;2022-12-07T01:54:17;100334.00;;;9.77;68.28
60417;BME280;46263;44.726;10.396;2022-12-07T01:56:50;100323.03;;;9.79;67.96
60417;BME280;46263;44.726;10.396;2022-12-07T01:59:18;100327.06;;;9.83;68.01
60417;BME280;46263;44.726;10.396;2022-12-07T02:01:45;100323.03;;;9.79;68.21
60417;BME280;46263;44.726;10.396;2022-12-07T02:04:11;100322.03;;;9.82;68.52
60417;BME280;46263;44.726;10.396;2022-12-07T02:06:38;100320.25;;;9.79;68.40
60417;BME280;46263;44.726;10.396;2022-12-07T02:09:04;100317.72;;;9.81;68.28
60417;BME280;46263;44.726;10.396;2022-12-07T02:11:30;100318.47;;;9.81;68.70
60417;BME280;46263;44.726;10.396;2022-12-07T02:13:56;100313.66;;;9.82;68.27
60417;BME280;46263;44.726;10.396;2022-12-07T02:16:31;100316.13;;;9.91;67.75
60417;BME280;46263;44.726;10.396;2022-12-07T02:27:45;100306.78;;;9.83;68.14
60417;BME280;46263;44.726;10.396;2022-12-07T02:30:14;100304.00;;;9.83;67.70
60417;BME280;46263;44.726;10.396;2022-12-07T02:35:17;100301.47;;;9.85;67.81
60417;BME280;46263;44.726;10.396;2022-12-07T02:38:03;100303.47;;;9.84;67.94
60417;BME280;46263;44.726;10.396;2022-12-07T02:43:27;100297.38;;;9.86;68.20
60417;BME280;46263;44.726;10.396;2022-12-07T02:45:56;100293.25;;;9.92;68.15
60417;BME280;46263;44.726;10.396;2022-12-07T02:48:24;100303.91;;;9.94;68.12
60417;BME280;46263;44.726;10.396;2022-12-07T02:50:53;100295.31;;;9.92;68.55
60417;BME280;46263;44.726;10.396;2022-12-07T02:53:37;100294.53;;;9.91;67.93
60417;BME280;46263;44.726;10.396;2022-12-07T03:07:27;100300.16;;;9.86;68.04
60417;BME280;46263;44.726;10.396;2022-12-07T03:10:03;100296.38;;;9.83;68.32
60417;BME280;46263;44.726;10.396;2022-12-07T03:12:50;100294.31;;;9.89;67.86
60417;BME280;46263;44.726;10.396;2022-12-07T03:15:26;100289.53;;;9.84;67.94
60417;BME280;46263;44.726;10.396;2022-12-07T03:17:54;100280.16;;;9.82;68.00
60417;BME280;46263;44.726;10.396;2022-12-07T03:20:23;100279.63;;;9.83;68.20
60417;BME280;46263;44.726;10.396;2022-12-07T03:22:51;100280.16;;;9.82;68.35
60417;BME280;46263;44.726;10.396;2022-12-07T03:25:18;100272.03;;;9.84;68.50
60417;BME280;46263;44.726;10.396;2022-12-07T03:30:10;100278.63;;;9.81;68.50
60417;BME280;46263;44.726;10.396;2022-12-07T03:32:43;100274.56;;;9.82;68.65
60417;BME280;46263;44.726;10.396;2022-12-07T03:35:21;100272.59;;;9.77;68.18
60417;BME280;46263;44.726;10.396;2022-12-07T03:37:56;100272.84;;;9.73;68.26
60417;BME280;46263;44.726;10.396;2022-12-07T03:40:32;100274.19;;;9.67;68.42
60417;BME280;46263;44.726;10.396;2022-12-07T03:43:00;100269.34;;;9.67;68.15
60417;BME280;46263;44.726;10.396;2022-12-07T03:45:42;100270.13;;;9.68;68.51
60417;BME280;46263;44.726;10.396;2022-12-07T03:48:25;100264.31;;;9.66;68.83
60417;BME280;46263;44.726;10.396;2022-12-07T03:50:58;100273.13;;;9.70;69.11
60417;BME280;46263;44.726;10.396;2022-12-07T03:53:34;100277.22;;;9.69;69.03
60417;BME280;46263;44.726;10.396;2022-12-07T03:56:02;100264.47;;;9.73;68.91
60417;BME280;46263;44.726;10.396;2022-12-07T03:58:27;100267.22;;;9.79;68.72
60417;BME280;46263;44.726;10.396;2022-12-07T04:00:55;100260.13;;;9.78;68.39
60417;BME280;46263;44.726;10.396;2022-12-07T04:03:21;100268.63;;;9.67;68.34
60417;BME280;46263;44.726;10.396;2022-12-07T04:05:46;100261.28;;;9.64;68.47
60417;BME280;46263;44.726;10.396;2022-12-07T04:08:12;100267.34;;;9.68;68.24
60417;BME280;46263;44.726;10.396;2022-12-07T04:10:37;100262.25;;;9.66;68.42
60417;BME280;46263;44.726;10.396;2022-12-07T04:13:03;100266.06;;;9.69;68.43
60417;BME280;46263;44.726;10.396;2022-12-07T04:15:28;100261.19;;;9.75;68.31
60417;BME280;46263;44.726;10.396;2022-12-07T04:17:54;100252.53;;;9.78;67.63
60417;BME280;46263;44.726;10.396;2022-12-07T04:20:20;100250.00;;;9.80;67.68
60417;BME280;46263;44.726;10.396;2022-12-07T04:22:45;100249.50;;;9.76;67.06
60417;BME280;46263;44.726;10.396;2022-12-07T04:25:11;100252.34;;;9.71;67.00
60417;BME280;46263;44.726;10.396;2022-12-07T04:27:36;100245.53;;;9.66;66.87
60417;BME280;46263;44.726;10.396;2022-12-07T04:30:02;100254.94;;;9.63;67.16
60417;BME280;46263;44.726;10.396;2022-12-07T04:32:28;100253.22;;;9.55;67.29
60417;BME280;46263;44.726;10.396;2022-12-07T04:34:53;100252.47;;;9.54;67.69
60417;BME280;46263;44.726;10.396;2022-12-07T04:37:19;100250.91;;;9.59;67.48
60417;BME280;46263;44.726;10.396;2022-12-07T04:39:44;100252.19;;;9.58;66.70
60417;BME280;46263;44.726;10.396;2022-12-07T04:42:10;100248.91;;;9.54;67.32
60417;BME280;46263;44.726;10.396;2022-12-07T04:44:36;100249.41;;;9.58;67.27
60417;BME280;46263;44.726;10.396;2022-12-07T04:47:01;100252.72;;;9.56;66.63
60417;BME280;46263;44.726;10.396;2022-12-07T04:49:27;100253.50;;;9.51;66.92
60417;BME280;46263;44.726;10.396;2022-12-07T04:51:52;100257.28;;;9.54;67.18
60417;BME280;46263;44.726;10.396;2022-12-07T04:54:18;100259.84;;;9.52;67.15
60417;BME280;46263;44.726;10.396;2022-12-07T04:56:44;100264.88;;;9.59;66.99
60417;BME280;46263;44.726;10.396;2022-12-07T04:59:11;100260.31;;;9.56;66.87
60417;BME280;46263;44.726;10.396;2022-12-07T05:01:36;100257.28;;;9.54;66.94
60417;BME280;46263;44.726;10.396;2022-12-07T05:04:02;100251.94;;;9.56;67.12
60417;BME280;46263;44.726;10.396;2022-12-07T05:06:27;100251.94;;;9.56;67.24
60417;BME280;46263;44.726;10.396;2022-12-07T05:08:53;100257.06;;;9.52;67.76
60417;BME280;46263;44.726;10.396;2022-12-07T05:11:19;100259.84;;;9.52;68.07
60417;BME280;46263;44.726;10.396;2022-12-07T05:14:04;100254.50;;;9.54;68.29
60417;BME280;46263;44.726;10.396;2022-12-07T05:16:30;100250.44;;;9.55;68.71
60417;BME280;46263;44.726;10.396;2022-12-07T05:18:56;100260.56;;;9.58;68.85
60417;BME280;46263;44.726;10.396;2022-12-07T05:21:21;100253.97;;;9.61;68.77
60417;BME280;46263;44.726;10.396;2022-12-07T05:23:47;100259.53;;;9.61;68.54
60417;BME280;46263;44.726;10.396;2022-12-07T05:26:12;100258.22;;;9.62;68.64
60417;BME280;46263;44.726;10.396;2022-12-07T05:28:38;100259.28;;;9.59;68.85
60417;BME280;46263;44.726;10.396;2022-12-07T05:31:03;100255.53;;;9.51;69.19
60417;BME280;46263;44.726;10.396;2022-12-07T05:33:29;100248.91;;;9.54;69.19
60417;BME280;46263;44.726;10.396;2022-12-07T05:35:54;100243.06;;;9.57;69.15
60417;BME280;46263;44.726;10.396;2022-12-07T05:38:20;100253.75;;;9.53;68.95
60417;BME280;46263;44.726;10.396;2022-12-07T05:40:45;100250.44;;;9.55;69.00
60417;BME280;46263;44.726;10.396;2022-12-07T05:43:11;100247.91;;;9.51;69.13
60417;BME280;46263;44.726;10.396;2022-12-07T05:45:36;100245.44;;;9.43;69.24
60417;BME280;46263;44.726;10.396;2022-12-07T05:48:02;100243.44;;;9.43;69.15
60417;BME280;46263;44.726;10.396;2022-12-07T05:50:27;100244.44;;;9.46;69.46
60417;BME280;46263;44.726;10.396;2022-12-07T05:52:53;100251.56;;;9.41;69.80
60417;BME280;46263;44.726;10.396;2022-12-07T05:55:19;100257.38;;;9.43;69.73
60417;BME280;46263;44.726;10.396;2022-12-07T05:57:44;100257.41;;;9.38;70.25
60417;BME280;46263;44.726;10.396;2022-12-07T06:00:30;100257.59;;;9.45;70.31
60417;BME280;46263;44.726;10.396;2022-12-07T06:02:55;100265.25;;;9.39;70.55
60417;BME280;46263;44.726;10.396;2022-12-07T06:05:20;100261.47;;;9.37;70.69
60417;BME280;46263;44.726;10.396;2022-12-07T06:07:46;100263.56;;;9.25;71.13
60417;BME280;46263;44.726;10.396;2022-12-07T06:10:11;100269.88;;;9.31;71.09
60417;BME280;46263;44.726;10.396;2022-12-07T06:12:37;100269.59;;;9.35;70.90
60417;BME280;46263;44.726;10.396;2022-12-07T06:15:05;100264.78;;;9.35;70.89
60417;BME280;46263;44.726;10.396;2022-12-07T06:17:31;100269.84;;;9.37;71.04
60417;BME280;46263;44.726;10.396;2022-12-07T06:19:56;100266.25;;;9.42;71.09
60417;BME280;46263;44.726;10.396;2022-12-07T06:22:22;100272.38;;;9.35;70.84
60417;BME280;46263;44.726;10.396;2022-12-07T06:24:47;100265.09;;;9.26;70.96
60417;BME280;46263;44.726;10.396;2022-12-07T06:27:13;100264.38;;;9.20;71.44
60417;BME280;46263;44.726;10.396;2022-12-07T06:29:38;100264.59;;;9.22;71.36
60417;BME280;46263;44.726;10.396;2022-12-07T06:32:04;100265.09;;;9.26;71.32
60417;BME280;46263;44.726;10.396;2022-12-07T06:34:30;100264.31;;;9.26;71.10
60417;BME280;46263;44.726;10.396;2022-12-07T06:36:55;100264.09;;;9.24;70.92
60417;BME280;46263;44.726;10.396;2022-12-07T06:39:23;100266.44;;;9.09;71.54
60417;BME280;46263;44.726;10.396;2022-12-07T06:41:49;100264.91;;;9.13;71.52
60417;BME280;46263;44.726;10.396;2022-12-07T06:44:17;100267.47;;;9.11;71.68
60417;BME280;46263;44.726;10.396;2022-12-07T06:46:42;100276.06;;;9.13;71.30
60417;BME280;46263;44.726;10.396;2022-12-07T06:49:08;100270.72;;;9.15;71.23
60417;BME280;46263;44.726;10.396;2022-12-07T06:51:34;100273.03;;;9.11;71.45
60417;BME280;46263;44.726;10.396;2022-12-07T06:54:07;100261.66;;;9.09;71.78
60417;BME280;46263;44.726;10.396;2022-12-07T06:56:32;100274.06;;;9.08;71.38
60417;BME280;46263;44.726;10.396;2022-12-07T06:58:58;100275.31;;;9.13;71.20
60417;BME280;46263;44.726;10.396;2022-12-07T07:01:23;100280.63;;;9.11;70.97
60417;BME280;46263;44.726;10.396;2022-12-07T07:03:49;100286.72;;;9.09;71.39
60417;BME280;46263;44.726;10.396;2022-12-07T07:06:14;100292.56;;;9.11;71.24
60417;BME280;46263;44.726;10.396;2022-12-07T07:08:41;100287.28;;;9.02;71.45
60417;BME280;46263;44.726;10.396;2022-12-07T07:11:07;100292.84;;;9.02;71.83
60417;BME280;46263;44.726;10.396;2022-12-07T07:13:33;100284.00;;;8.98;72.16
60417;BME280;46263;44.726;10.396;2022-12-07T07:15:59;100295.91;;;8.99;71.91
60417;BME280;46263;44.726;10.396;2022-12-07T07:18:25;100296.13;;;9.01;71.96
60417;BME280;46263;44.726;10.396;2022-12-07T07:20:51;100295.69;;;8.91;72.22
60417;BME280;46263;44.726;10.396;2022-12-07T07:23:17;100291.38;;;8.90;71.61
60417;BME280;46263;44.726;10.396;2022-12-07T07:25:44;100288.13;;;8.86;71.96
60417;BME280;46263;44.726;10.396;2022-12-07T07:28:09;100286.88;;;8.76;72.38
60417;BME280;46263;44.726;10.396;2022-12-07T07:30:34;100289.13;;;8.83;72.51
60417;BME280;46263;44.726;10.396;2022-12-07T07:33:01;100293.97;;;8.77;72.60
60417;BME280;46263;44.726;10.396;2022-12-07T07:35:28;100293.97;;;8.77;72.57
60417;BME280;46263;44.726;10.396;2022-12-07T07:37:54;100300.53;;;8.85;72.19
60417;BME280;46263;44.726;10.396;2022-12-07T07:40:20;100301.28;;;8.86;71.65
60417;BME280;46263;44.726;10.396;2022-12-07T07:42:49;100300.28;;;8.78;72.09
60417;BME280;46263;44.726;10.396;2022-12-07T07:45:15;100310.69;;;8.77;72.06
60417;BME280;46263;44.726;10.396;2022-12-07T07:47:41;100310.94;;;8.79;71.95
60417;BME280;46263;44.726;10.396;2022-12-07T07:50:07;100311.41;;;8.83;71.90
60417;BME280;46263;44.726;10.396;2022-12-07T07:52:32;100308.88;;;8.85;71.12
60417;BME280;46263;44.726;10.396;2022-12-07T07:54:58;100310.16;;;8.84;71.29
60417;BME280;46263;44.726;10.396;2022-12-07T07:57:23;100314.44;;;8.91;70.82
60417;BME280;46263;44.726;10.396;2022-12-07T07:59:48;100320.56;;;8.84;71.21
60417;BME280;46263;44.726;10.396;2022-12-07T08:02:18;100321.81;;;8.77;71.30
60417;BME280;46263;44.726;10.396;2022-12-07T08:04:45;100333.97;;;8.80;71.16
60417;BME280;46263;44.726;10.396;2022-12-07T08:07:12;100323.63;;;8.75;71.06
60417;BME280;46263;44.726;10.396;2022-12-07T08:09:38;100322.31;;;8.81;71.52
60417;BME280;46263;44.726;10.396;2022-12-07T08:12:03;100317.78;;;8.78;71.20
60417;BME280;46263;44.726;10.396;2022-12-07T08:14:29;100327.38;;;8.83;71.16
60417;BME280;46263;44.726;10.396;2022-12-07T08:16:55;100339.25;;;8.89;70.90
60417;BME280;46263;44.726;10.396;2022-12-07T08:19:20;100327.34;;;8.88;70.72
60417;BME280;46263;44.726;10.396;2022-12-07T08:21:46;100339.25;;;9.00;70.77
60417;BME280;46263;44.726;10.396;2022-12-07T08:24:11;100335.69;;;8.99;70.68
60417;BME280;46263;44.726;10.396;2022-12-07T08:26:37;100331.63;;;9.00;70.74
60417;BME280;46263;44.726;10.396;2022-12-07T08:29:03;100331.34;;;9.04;70.60
60417;BME280;46263;44.726;10.396;2022-12-07T08:31:28;100338.44;;;9.05;70.90
60417;BME280;46263;44.726;10.396;2022-12-07T08:33:54;100338.16;;;9.08;71.05
60417;BME280;46263;44.726;10.396;2022-12-07T08:36:20;100343.00;;;9.08;70.88
60417;BME280;46263;44.726;10.396;2022-12-07T08:38:48;100335.63;;;9.10;70.86
60417;BME280;46263;44.726;10.396;2022-12-07T08:41:13;100347.28;;;9.09;70.85
60417;BME280;46263;44.726;10.396;2022-12-07T08:43:39;100339.94;;;9.11;70.90
60417;BME280;46263;44.726;10.396;2022-12-07T08:48:43;100340.41;;;9.15;71.08
60417;BME280;46263;44.726;10.396;2022-12-07T08:51:11;100342.94;;;9.19;70.87
60417;BME280;46263;44.726;10.396;2022-12-07T08:53:38;100355.09;;;9.21;71.29
60417;BME280;46263;44.726;10.396;2022-12-07T08:56:05;100343.72;;;9.14;70.95
60417;BME280;46263;44.726;10.396;2022-12-07T08:58:33;100361.16;;;9.25;70.72
60417;BME280;46263;44.726;10.396;2022-12-07T09:00:58;100354.84;;;9.25;70.49
60417;BME280;46263;44.726;10.396;2022-12-07T09:03:24;100356.56;;;9.33;70.32
60417;BME280;46263;44.726;10.396;2022-12-07T09:05:49;100357.31;;;9.34;70.31
60417;BME280;46263;44.726;10.396;2022-12-07T09:08:15;100352.47;;;9.40;70.27
60417;BME280;46263;44.726;10.396;2022-12-07T09:10:41;100358.09;;;9.34;70.05
60417;BME280;46263;44.726;10.396;2022-12-07T09:13:06;100355.75;;;9.38;70.01
60417;BME280;46263;44.726;10.396;2022-12-07T09:15:32;100357.78;;;9.43;70.16
60417;BME280;46263;44.726;10.396;2022-12-07T09:17:57;100358.50;;;9.49;70.31
60417;BME280;46263;44.726;10.396;2022-12-07T09:20:22;100363.59;;;9.45;69.35
60417;BME280;46263;44.726;10.396;2022-12-07T09:22:48;100355.22;;;9.45;69.39
60417;BME280;46263;44.726;10.396;2022-12-07T09:25:13;100348.09;;;9.49;69.91
60417;BME280;46263;44.726;10.396;2022-12-07T09:27:40;100350.59;;;9.53;69.73
60417;BME280;46263;44.726;10.396;2022-12-07T09:30:06;100357.47;;;9.52;69.71
60417;BME280;46263;44.726;10.396;2022-12-07T09:32:32;100346.31;;;9.52;69.75
60417;BME280;46263;44.726;10.396;2022-12-07T09:34:57;100359.22;;;9.55;69.62
60417;BME280;46263;44.726;10.396;2022-12-07T09:37:23;100358.50;;;9.49;69.77
60417;BME280;46263;44.726;10.396;2022-12-07T09:39:49;100363.91;;;9.36;70.36
60417;BME280;46263;44.726;10.396;2022-12-07T09:42:28;100355.81;;;9.33;70.60
60417;BME280;46263;44.726;10.396;2022-12-07T09:44:54;100357.53;;;9.41;70.45
60417;BME280;46263;44.726;10.396;2022-12-07T09:47:19;100357.81;;;9.38;70.57
60417;BME280;46263;44.726;10.396;2022-12-07T09:49:45;100347.69;;;9.29;69.91
60417;BME280;46263;44.726;10.396;2022-12-07T09:52:18;100348.91;;;9.39;70.31
60417;BME280;46263;44.726;10.396;2022-12-07T09:54:45;100347.66;;;9.35;69.56
60417;BME280;46263;44.726;10.396;2022-12-07T09:57:12;100346.16;;;9.34;69.95
60417;BME280;46263;44.726;10.396;2022-12-07T09:59:38;100356.06;;;9.29;70.28
60417;BME280;46263;44.726;10.396;2022-12-07T10:02:37;100345.22;;;9.20;70.11
60417;BME280;46263;44.726;10.396;2022-12-07T10:05:06;100343.72;;;9.14;70.40
60417;BME280;46263;44.726;10.396;2022-12-07T10:07:32;100341.41;;;9.23;70.49
60417;BME280;46263;44.726;10.396;2022-12-07T10:09:57;100335.78;;;9.34;70.63
60417;BME280;46263;44.726;10.396;2022-12-07T10:12:23;100340.06;;;9.41;70.24
60417;BME280;46263;44.726;10.396;2022-12-07T10:15:04;100332.13;;;9.50;69.31
60417;BME280;46263;44.726;10.396;2022-12-07T10:17:39;100326.69;;;9.68;68.93
60417;BME280;46263;44.726;10.396;2022-12-07T10:20:21;100334.00;;;9.77;68.13
60417;BME280;46263;44.726;10.396;2022-12-07T10:23:04;100332.19;;;9.79;67.85
60417;BME280;46263;44.726;10.396;2022-12-07T10:25:34;100330.69;;;9.78;68.63
60417;BME280;46263;44.726;10.396;2022-12-07T10:30:32;100325.28;;;9.86;67.52
60417;BME280;46263;44.726;10.396;2022-12-07T10:32:58;100322.47;;;9.86;68.05
60417;BME280;46263;44.726;10.396;2022-12-07T10:35:24;100323.53;;;9.83;67.66
60417;BME280;46263;44.726;10.396;2022-12-07T10:37:51;100319.78;;;9.75;67.89
60417;BME280;46263;44.726;10.396;2022-12-07T10:40:32;100313.44;;;9.74;67.57
60417;BME280;46263;44.726;10.396;2022-12-07T10:43:06;100315.25;;;9.72;67.72
60417;BME280;46263;44.726;10.396;2022-12-07T10:45:59;100313.16;;;9.78;67.51
60417;BME280;46263;44.726;10.396;2022-12-07T10:54:17;100307.28;;;9.81;67.41
60417;BME280;46263;44.726;10.396;2022-12-07T11:08:21;100273.53;;;9.85;66.21
60417;BME280;46263;44.726;10.396;2022-12-07T11:10:52;100273.72;;;9.92;66.36
60417;BME280;46263;44.726;10.396;2022-12-07T11:19:05;100264.66;;;10.16;65.35
60417;BME280;46263;44.726;10.396;2022-12-07T11:21:50;100259.19;;;10.29;65.16
60417;BME280;46263;44.726;10.396;2022-12-07T11:24:26;100255.63;;;10.52;64.76
60417;BME280;46263;44.726;10.396;2022-12-07T11:37:57;100238.84;;;10.94;64.02
60417;BME280;46263;44.726;10.396;2022-12-07T11:40:33;100238.41;;;10.90;63.93
60417;BME280;46263;44.726;10.396;2022-12-07T11:43:12;100236.41;;;10.85;63.07
60417;BME280;46263;44.726;10.396;2022-12-07T11:45:42;100228.56;;;10.65;63.07
60417;BME280;46263;44.726;10.396;2022-12-07T11:50:54;100226.25;;;10.45;65.20
60417;BME280;46263;44.726;10.396;2022-12-07T11:56:11;100234.34;;;10.67;64.27
60417;BME280;46263;44.726;10.396;2022-12-07T12:01:51;100229.19;;;10.95;62.92
60417;BME280;46263;44.726;10.396;2022-12-07T12:06:55;100228.50;;;10.89;62.68
60417;BME280;46263;44.726;10.396;2022-12-07T12:20:35;100218.00;;;10.77;62.76
60417;BME280;46263;44.726;10.396;2022-12-07T12:25:50;100212.47;;;10.71;63.87
60417;BME280;46263;44.726;10.396;2022-12-07T12:28:51;100206.94;;;10.47;63.84
60417;BME280;46263;44.726;10.396;2022-12-07T12:31:31;100209.03;;;10.41;64.61
60417;BME280;46263;44.726;10.396;2022-12-07T12:33:59;100202.13;;;10.42;64.39
60417;BME280;46263;44.726;10.396;2022-12-07T12:46:56;100204.91;;;10.24;66.58
60417;BME280;46263;44.726;10.396;2022-12-07T12:54:27;100203.34;;;10.05;66.41
60417;BME280;46263;44.726;10.396;2022-12-07T13:10:24;100193.25;;;9.72;67.25
60417;BME280;46263;44.726;10.396;2022-12-07T13:23:35;100186.25;;;9.84;67.29
60417;BME280;46263;44.726;10.396;2022-12-07T13:26:20;100182.94;;;9.86;66.79
60417;BME280;46263;44.726;10.396;2022-12-07T13:28:48;100174.22;;;9.95;66.65
60417;BME280;46263;44.726;10.396;2022-12-07T13:31:34;100175.19;;;10.03;66.21
60417;BME280;46263;44.726;10.396;2022-12-07T13:34:03;100175.56;;;9.88;66.35
60417;BME280;46263;44.726;10.396;2022-12-07T13:36:32;100181.50;;;9.79;66.88
60417;BME280;46263;44.726;10.396;2022-12-07T13:41:42;100187.25;;;9.57;67.36
60417;BME280;46263;44.726;10.396;2022-12-07T13:44:15;100189.31;;;9.57;67.87
60417;BME280;46263;44.726;10.396;2022-12-07T13:47:02;100192.84;;;9.57;68.01
60417;BME280;46263;44.726;10.396;2022-12-07T13:49:32;100193.63;;;9.58;68.22
60417;BME280;46263;44.726;10.396;2022-12-07T13:52:27;100186.28;;;9.55;68.59
60417;BME280;46263;44.726;10.396;2022-12-07T13:57:26;100181.50;;;9.50;68.31
60417;BME280;46263;44.726;10.396;2022-12-07T13:59:52;100178.19;;;9.51;68.33
60417;BME280;46263;44.726;10.396;2022-12-07T14:02:34;100179.72;;;9.52;68.48
60417;BME280;46263;44.726;10.396;2022-12-07T14:05:24;100173.84;;;9.56;68.33
60417;BME280;46263;44.726;10.396;2022-12-07T14:10:40;100184.44;;;9.63;68.13
60417;BME280;46263;44.726;10.396;2022-12-07T14:15:58;100172.19;;;9.71;67.74
60417;BME280;46263;44.726;10.396;2022-12-07T14:18:37;100174.44;;;9.73;67.72
60417;BME280;46263;44.726;10.396;2022-12-07T14:23:36;100172.41;;;9.73;67.72
60417;BME280;46263;44.726;10.396;2022-12-07T14:26:19;100185.84;;;9.75;67.40
60417;BME280;46263;44.726;10.396;2022-12-07T14:28:45;100187.13;;;9.74;67.74
60417;BME280;46263;44.726;10.396;2022-12-07T14:31:13;100182.56;;;9.71;67.59
60417;BME280;46263;44.726;10.396;2022-12-07T14:33:39;100178.69;;;9.55;67.92
60417;BME280;46263;44.726;10.396;2022-12-07T14:36:05;100180.25;;;9.51;68.34
60417;BME280;46263;44.726;10.396;2022-12-07T14:38:30;100181.22;;;9.53;68.07
60417;BME280;46263;44.726;10.396;2022-12-07T14:40:56;100190.88;;;9.52;67.63
60417;BME280;46263;44.726;10.396;2022-12-07T14:43:44;100188.38;;;9.49;67.54
60417;BME280;46263;44.726;10.396;2022-12-07T14:46:10;100192.41;;;9.48;67.70
60417;BME280;46263;44.726;10.396;2022-12-07T14:48:35;100194.31;;;9.35;67.67
60417;BME280;46263;44.726;10.396;2022-12-07T14:51:01;100195.41;;;9.26;68.04
60417;BME280;46263;44.726;10.396;2022-12-07T14:53:33;100204.50;;;9.27;67.50
60417;BME280;46263;44.726;10.396;2022-12-07T14:56:00;100199.69;;;9.27;67.96
60417;BME280;46263;44.726;10.396;2022-12-07T14:58:25;100195.00;;;9.11;67.79
60417;BME280;46263;44.726;10.396;2022-12-07T15:00:51;100192.53;;;9.02;68.07
60417;BME280;46263;44.726;10.396;2022-12-07T15:03:16;100202.88;;;9.02;68.42
60417;BME280;46263;44.726;10.396;2022-12-07T15:05:42;100191.34;;;8.81;68.72
60417;BME280;46263;44.726;10.396;2022-12-07T15:08:11;100192.44;;;8.73;69.30
60417;BME280;46263;44.726;10.396;2022-12-07T15:10:37;100196.00;;;8.68;69.33
60417;BME280;46263;44.726;10.396;2022-12-07T15:13:04;100200.63;;;8.55;69.78
60417;BME280;46263;44.726;10.396;2022-12-07T15:15:51;100188.97;;;8.56;69.63
60417;BME280;46263;44.726;10.396;2022-12-07T15:18:18;100197.34;;;8.51;69.86
60417;BME280;46263;44.726;10.396;2022-12-07T15:20:44;100198.16;;;8.40;70.48
60417;BME280;46263;44.726;10.396;2022-12-07T15:23:11;100197.91;;;8.33;70.25
60417;BME280;46263;44.726;10.396;2022-12-07T15:25:40;100201.47;;;8.39;70.25
60417;BME280;46263;44.726;10.396;2022-12-07T15:28:06;100204.69;;;8.48;70.02